Time;durP1;ratioP1;P1;durP2;ratioP2;P2;SDS_P1;SDS_P2;PMS_P1;PMS_P2;Temp;Humidity;BMP_temperature;BMP_pressure;BME280_temperature;BME280_humidity;BME280_pressure;Samples;Min_cycle;Max_cycle;Signal;HPM_P1;HPM_P2
2021/05/25 00:00:50;;;;;;;2.30;1.00;;;;;;;;;;4964746;28;20192;-54
2021/05/25 00:03:16;;;;;;;1.20;1.10;;;;;;;;;;4962450;28;20185;-54
2021/05/25 00:05:42;;;;;;;0.97;0.83;;;;;;;;;;4962002;28;20224;-54
2021/05/25 00:08:09;;;;;;;0.80;0.80;;;;;;;;;;4969980;28;20335;-51
2021/05/25 00:10:34;;;;;;;1.53;1.17;;;;;;;;;;4966397;28;20213;-55
2021/05/25 00:13:00;;;;;;;1.30;1.07;;;;;;;;;;4965354;28;20593;-52
2021/05/25 00:15:28;;;;;;;1.33;1.00;;;;;;;;;;4964987;28;20199;-53
2021/05/25 00:17:56;;;;;;;2.13;1.10;;;;;;;;;;4967524;28;20196;-56
2021/05/25 00:20:23;;;;;;;1.37;0.93;;;;;;;;;;4964128;28;20291;-52
2021/05/25 00:22:49;;;;;;;0.70;0.70;;;;;;;;;;4964070;28;20276;-53
2021/05/25 00:25:18;;;;;;;1.07;0.83;;;;;;;;;;4964772;28;22047;-53
2021/05/25 00:27:44;;;;;;;1.17;0.53;;;;;;;;;;4962612;28;20253;-53
2021/05/25 00:30:13;;;;;;;1.30;0.80;;;;;;;;;;4969758;28;20192;-52
2021/05/25 00:32:39;;;;;;;2.30;0.70;;;;;;;;;;4965384;28;20209;-55
2021/05/25 00:35:05;;;;;;;5.40;0.60;;;;;;;;;;4974207;28;20266;-54
2021/05/25 00:37:33;;;;;;;0.77;0.73;;;;;;;;;;4966101;28;20209;-51
2021/05/25 00:39:58;;;;;;;0.77;0.77;;;;;;;;;;4968754;28;20200;-54
2021/05/25 00:42:24;;;;;;;1.63;1.00;;;;;;;;;;4964068;28;20186;-53
2021/05/25 00:44:49;;;;;;;1.43;1.00;;;;;;;;;;4966477;28;20284;-53
2021/05/25 00:47:15;;;;;;;0.87;0.83;;;;;;;;;;4961199;28;20208;-55
2021/05/25 00:49:40;;;;;;;9.13;1.20;;;;;;;;;;4970465;28;20220;-53
2021/05/25 00:52:06;;;;;;;1.10;0.80;;;;;;;;;;4965794;28;20196;-52
2021/05/25 00:54:33;;;;;;;1.03;0.90;;;;;;;;;;4981704;28;20227;-53
2021/05/25 00:57:03;;;;;;;0.73;0.70;;;;;;;;;;4966326;28;20216;-53
2021/05/25 00:59:28;;;;;;;1.00;0.90;;;;;;;;;;4966046;28;20868;-53
2021/05/25 01:01:54;;;;;;;0.70;0.60;;;;;;;;;;4965832;28;20275;-53
2021/05/25 01:04:22;;;;;;;0.50;0.50;;;;;;;;;;4961665;28;20197;-53
2021/05/25 01:06:47;;;;;;;1.03;0.93;;;;;;;;;;4965945;28;20238;-54
2021/05/25 01:09:16;;;;;;;1.37;0.70;;;;;;;;;;4969970;28;20747;-53
2021/05/25 01:11:42;;;;;;;2.00;1.30;;;;;;;;;;4966442;28;20199;-52
2021/05/25 01:14:09;;;;;;;0.80;0.80;;;;;;;;;;4967381;28;20208;-51
2021/05/25 01:16:34;;;;;;;0.60;0.60;;;;;;;;;;4964907;28;20252;-53
2021/05/25 01:18:59;;;;;;;0.67;0.67;;;;;;;;;;4965988;28;20306;-54
2021/05/25 01:21:26;;;;;;;1.77;0.93;;;;;;;;;;4967763;28;20193;-54
2021/05/25 01:23:54;;;;;;;1.03;1.03;;;;;;;;;;4976685;28;20190;-53
2021/05/25 01:26:20;;;;;;;1.57;1.10;;;;;;;;;;4964088;28;20224;-52
2021/05/25 01:28:47;;;;;;;1.83;1.23;;;;;;;;;;4966436;28;20194;-52
2021/05/25 01:31:13;;;;;;;4.40;1.20;;;;;;;;;;4981422;28;20249;-52
2021/05/25 01:33:40;;;;;;;2.60;1.10;;;;;;;;;;4976413;28;20692;-52
2021/05/25 01:36:07;;;;;;;1.63;0.77;;;;;;;;;;4965378;28;20216;-54
2021/05/25 01:38:33;;;;;;;2.77;0.80;;;;;;;;;;4964889;28;20652;-52
2021/05/25 01:40:59;;;;;;;2.57;0.90;;;;;;;;;;4966351;28;20264;-54
2021/05/25 01:43:25;;;;;;;0.90;0.80;;;;;;;;;;4962347;28;20208;-54
2021/05/25 01:45:51;;;;;;;1.87;0.90;;;;;;;;;;4965196;28;20212;-53
2021/05/25 01:48:17;;;;;;;0.80;0.80;;;;;;;;;;4965789;28;20201;-54
2021/05/25 01:50:43;;;;;;;0.90;0.80;;;;;;;;;;4965803;28;20185;-52
2021/05/25 01:53:10;;;;;;;2.37;0.90;;;;;;;;;;4964578;28;20708;-55
2021/05/25 01:55:44;;;;;;;2.63;1.10;;;;;;;;;;4965999;28;20295;-52
2021/05/25 01:58:15;;;;;;;1.30;0.90;;;;;;;;;;4966844;28;20202;-54
2021/05/25 02:00:46;;;;;;;0.87;0.87;;;;;;;;;;4974328;28;20196;-54
2021/05/25 02:03:13;;;;;;;1.20;0.90;;;;;;;;;;4970648;28;20212;-54
2021/05/25 02:05:39;;;;;;;0.80;0.60;;;;;;;;;;4967949;28;20212;-51
2021/05/25 02:08:06;;;;;;;0.80;0.70;;;;;;;;;;4970938;28;20223;-54
2021/05/25 02:10:37;;;;;;;2.00;1.67;;;;;;;;;;4968669;28;20196;-54
2021/05/25 02:13:09;;;;;;;0.93;0.87;;;;;;;;;;4970402;28;20633;-52
2021/05/25 02:15:35;;;;;;;1.90;0.90;;;;;;;;;;4970807;28;20239;-54
2021/05/25 02:18:10;;;;;;;1.47;0.80;;;;;;;;;;4971875;28;20199;-53
2021/05/25 02:20:36;;;;;;;1.57;0.80;;;;;;;;;;4970272;28;20659;-54
2021/05/25 02:23:04;;;;;;;1.67;1.00;;;;;;;;;;4965917;28;20189;-53
2021/05/25 02:25:30;;;;;;;1.00;0.80;;;;;;;;;;4971288;28;20196;-54
2021/05/25 02:27:56;;;;;;;0.83;0.80;;;;;;;;;;4967698;28;20192;-52
2021/05/25 02:30:22;;;;;;;2.37;0.80;;;;;;;;;;4969520;28;20200;-53
2021/05/25 02:32:48;;;;;;;2.97;0.60;;;;;;;;;;4964447;28;20216;-53
2021/05/25 02:35:14;;;;;;;0.73;0.70;;;;;;;;;;4972212;28;20649;-55
2021/05/25 02:37:40;;;;;;;0.67;0.67;;;;;;;;;;4966351;28;20193;-53
2021/05/25 02:40:06;;;;;;;1.17;0.70;;;;;;;;;;4969556;28;20192;-54
2021/05/25 02:42:32;;;;;;;1.07;0.90;;;;;;;;;;4975869;28;20193;-54
2021/05/25 02:44:59;;;;;;;2.27;0.93;;;;;;;;;;4971308;28;20203;-54
2021/05/25 02:47:25;;;;;;;1.10;0.70;;;;;;;;;;4967654;28;20213;-53
2021/05/25 02:49:50;;;;;;;2.07;0.90;;;;;;;;;;4969929;28;20402;-54
2021/05/25 02:52:16;;;;;;;1.87;0.80;;;;;;;;;;4976633;28;20194;-53
2021/05/25 02:54:41;;;;;;;2.23;0.80;;;;;;;;;;4965282;28;20185;-54
2021/05/25 02:57:08;;;;;;;1.40;0.80;;;;;;;;;;4970030;28;20696;-52
2021/05/25 02:59:36;;;;;;;3.13;0.90;;;;;;;;;;4984351;28;20193;-54
2021/05/25 03:02:04;;;;;;;0.77;0.70;;;;;;;;;;4966478;28;20453;-52
2021/05/25 03:04:29;;;;;;;1.33;0.90;;;;;;;;;;4981451;28;20192;-54
2021/05/25 03:06:57;;;;;;;0.80;0.77;;;;;;;;;;4967093;28;20220;-51
2021/05/25 03:09:22;;;;;;;0.97;0.70;;;;;;;;;;4968231;28;20247;-54
2021/05/25 03:11:48;;;;;;;1.60;0.80;;;;;;;;;;4969357;28;20197;-54
2021/05/25 03:14:13;;;;;;;1.60;0.83;;;;;;;;;;4969771;28;20582;-53
2021/05/25 03:16:41;;;;;;;0.73;0.60;;;;;;;;;;4965814;28;20209;-54
2021/05/25 03:19:10;;;;;;;0.67;0.47;;;;;;;;;;4983099;28;20275;-54
2021/05/25 03:21:35;;;;;;;1.30;0.70;;;;;;;;;;4969297;28;20189;-53
2021/05/25 03:24:00;;;;;;;0.83;0.60;;;;;;;;;;4966792;28;20176;-53
2021/05/25 03:26:26;;;;;;;1.20;0.70;;;;;;;;;;4966032;28;20291;-52
2021/05/25 03:28:51;;;;;;;0.63;0.63;;;;;;;;;;4967696;28;20668;-53
2021/05/25 03:31:16;;;;;;;2.93;0.90;;;;;;;;;;4967339;28;20224;-54
2021/05/25 03:33:42;;;;;;;1.33;1.00;;;;;;;;;;4961081;28;20580;-53
2021/05/25 03:36:10;;;;;;;0.67;0.67;;;;;;;;;;4968011;28;20244;-53
2021/05/25 03:38:35;;;;;;;1.57;0.70;;;;;;;;;;4970026;28;20687;-54
2021/05/25 03:41:01;;;;;;;0.80;0.77;;;;;;;;;;4969119;28;20196;-54
2021/05/25 03:43:26;;;;;;;1.90;0.90;;;;;;;;;;4968693;28;20260;-53
2021/05/25 03:45:51;;;;;;;0.77;0.70;;;;;;;;;;4976580;28;20295;-54
2021/05/25 03:48:17;;;;;;;0.77;0.77;;;;;;;;;;4967670;28;20193;-53
2021/05/25 03:50:43;;;;;;;1.53;0.80;;;;;;;;;;4969685;28;20195;-52
2021/05/25 03:53:09;;;;;;;1.07;0.70;;;;;;;;;;4967625;28;20196;-53
2021/05/25 04:00:54;;;;;;;1.90;0.97;;;;;;;;;;4967687;28;20352;-54
2021/05/25 04:03:22;;;;;;;1.00;0.80;;;;;;;;;;4960481;28;20192;-52
2021/05/25 04:05:48;;;;;;;1.73;0.90;;;;;;;;;;4968199;28;20300;-52
2021/05/25 04:08:14;;;;;;;1.67;1.10;;;;;;;;;;4967820;28;20260;-54
2021/05/25 04:10:40;;;;;;;3.37;0.93;;;;;;;;;;4949582;28;20203;-54
2021/05/25 04:13:05;;;;;;;0.87;0.80;;;;;;;;;;4965059;28;20213;-55
2021/05/25 04:15:33;;;;;;;2.43;0.90;;;;;;;;;;4969437;28;20342;-53
2021/05/25 04:17:58;;;;;;;2.30;0.80;;;;;;;;;;4968146;28;20193;-54
2021/05/25 04:20:24;;;;;;;1.27;0.87;;;;;;;;;;4968121;28;20192;-52
2021/05/25 04:22:49;;;;;;;0.90;0.80;;;;;;;;;;4965623;28;20186;-53
2021/05/25 04:25:17;;;;;;;1.33;0.70;;;;;;;;;;4964896;28;20188;-52
2021/05/25 04:27:43;;;;;;;0.97;0.80;;;;;;;;;;4974376;28;20858;-53
2021/05/25 04:30:11;;;;;;;1.17;0.73;;;;;;;;;;4967686;28;20184;-52
2021/05/25 04:32:37;;;;;;;1.10;0.73;;;;;;;;;;4981694;28;20245;-55
2021/05/25 04:35:04;;;;;;;0.80;0.80;;;;;;;;;;4969610;28;20739;-53
2021/05/25 04:37:29;;;;;;;2.17;0.90;;;;;;;;;;4963469;28;20204;-51
2021/05/25 04:39:54;;;;;;;0.83;0.70;;;;;;;;;;4962454;28;20193;-53
2021/05/25 04:42:20;;;;;;;1.73;1.00;;;;;;;;;;4965702;28;20272;-54
2021/05/25 04:44:47;;;;;;;1.47;0.97;;;;;;;;;;4967748;28;20710;-54
2021/05/25 04:47:13;;;;;;;2.60;0.97;;;;;;;;;;4980472;28;20719;-53
2021/05/25 04:49:40;;;;;;;0.60;0.60;;;;;;;;;;4964169;28;20185;-52
2021/05/25 04:52:06;;;;;;;1.40;0.90;;;;;;;;;;4968754;28;20193;-54
2021/05/25 04:54:32;;;;;;;1.43;0.60;;;;;;;;;;4968673;28;20295;-55
2021/05/25 04:56:57;;;;;;;0.60;0.60;;;;;;;;;;4965183;28;20295;-54
2021/05/25 04:59:23;;;;;;;1.23;0.57;;;;;;;;;;4965441;28;20270;-52
2021/05/25 05:01:48;;;;;;;1.40;0.80;;;;;;;;;;4978302;28;20583;-53
2021/05/25 05:04:13;;;;;;;1.07;0.73;;;;;;;;;;4970175;28;20176;-54
2021/05/25 05:06:39;;;;;;;2.27;0.73;;;;;;;;;;4966745;28;20212;-52
2021/05/25 05:09:06;;;;;;;1.73;1.00;;;;;;;;;;4967315;28;20263;-54
2021/05/25 05:11:32;;;;;;;1.83;0.80;;;;;;;;;;4965493;28;20239;-54
2021/05/25 05:13:58;;;;;;;2.70;0.70;;;;;;;;;;4962561;28;24925;-54
2021/05/25 05:16:24;;;;;;;1.23;1.13;;;;;;;;;;4979353;28;20204;-54
2021/05/25 05:18:49;;;;;;;0.80;0.80;;;;;;;;;;4963594;28;20192;-52
2021/05/25 05:21:14;;;;;;;1.43;0.60;;;;;;;;;;4966686;28;20289;-53
2021/05/25 05:23:40;;;;;;;0.60;0.60;;;;;;;;;;4966403;28;20234;-52
2021/05/25 05:26:05;;;;;;;1.80;0.90;;;;;;;;;;4963635;28;20208;-53
2021/05/25 05:28:33;;;;;;;1.47;0.80;;;;;;;;;;4967394;28;20197;-53
2021/05/25 05:30:58;;;;;;;0.80;0.70;;;;;;;;;;4980180;28;20192;-52
2021/05/25 05:33:23;;;;;;;1.33;0.50;;;;;;;;;;4964539;28;20212;-54
2021/05/25 05:35:51;;;;;;;1.27;0.87;;;;;;;;;;4964245;28;20212;-54
2021/05/25 05:38:17;;;;;;;0.70;0.57;;;;;;;;;;4965092;28;20653;-56
2021/05/25 05:40:42;;;;;;;0.60;0.60;;;;;;;;;;4966730;28;20192;-52
2021/05/25 05:43:08;;;;;;;1.50;0.70;;;;;;;;;;4956177;28;20193;-54
2021/05/25 05:45:34;;;;;;;1.17;0.70;;;;;;;;;;4963848;28;20216;-52
2021/05/25 05:47:59;;;;;;;2.67;0.90;;;;;;;;;;4964188;28;20197;-56
2021/05/25 05:50:25;;;;;;;3.43;0.73;;;;;;;;;;4954041;28;20192;-50
2021/05/25 05:52:50;;;;;;;1.23;0.70;;;;;;;;;;4965356;28;20197;-52
2021/05/25 05:55:16;;;;;;;0.60;0.60;;;;;;;;;;4967456;28;20243;-52
2021/05/25 05:57:42;;;;;;;0.60;0.60;;;;;;;;;;4968386;28;20192;-54
2021/05/25 06:00:08;;;;;;;2.03;0.70;;;;;;;;;;4965017;28;20197;-52
2021/05/25 06:02:34;;;;;;;0.70;0.70;;;;;;;;;;4964341;28;20192;-54
2021/05/25 06:04:59;;;;;;;1.03;0.60;;;;;;;;;;4963042;28;20196;-53
2021/05/25 06:07:27;;;;;;;1.33;0.60;;;;;;;;;;4961174;28;20220;-52
2021/05/25 06:09:55;;;;;;;0.43;0.43;;;;;;;;;;4965294;28;21497;-53
2021/05/25 06:12:20;;;;;;;0.80;0.50;;;;;;;;;;4969546;28;20191;-53
2021/05/25 06:14:46;;;;;;;1.67;0.70;;;;;;;;;;4966274;28;20267;-53
2021/05/25 06:17:11;;;;;;;0.50;0.50;;;;;;;;;;4967036;28;20224;-53
2021/05/25 06:19:36;;;;;;;0.70;0.60;;;;;;;;;;4964188;28;20868;-54
2021/05/25 06:22:01;;;;;;;0.60;0.57;;;;;;;;;;4964615;28;20196;-53
2021/05/25 06:24:29;;;;;;;1.20;0.60;;;;;;;;;;4966084;28;20185;-53
2021/05/25 06:26:54;;;;;;;0.40;0.40;;;;;;;;;;4963238;28;20643;-53
2021/05/25 06:29:19;;;;;;;0.73;0.50;;;;;;;;;;4969017;28;20188;-54
2021/05/25 06:31:47;;;;;;;1.00;0.60;;;;;;;;;;4967903;28;20197;-53
2021/05/25 06:34:12;;;;;;;0.80;0.60;;;;;;;;;;4967551;28;20271;-53
2021/05/25 06:36:38;;;;;;;0.60;0.60;;;;;;;;;;4966652;28;20606;-54
2021/05/25 06:39:04;;;;;;;0.97;0.63;;;;;;;;;;4966324;28;20189;-53
2021/05/25 06:41:29;;;;;;;7.47;0.60;;;;;;;;;;4966698;28;20647;-52
2021/05/25 06:43:54;;;;;;;1.20;0.60;;;;;;;;;;4964935;28;20271;-52
2021/05/25 06:46:22;;;;;;;1.03;0.60;;;;;;;;;;4966430;28;20928;-54
2021/05/25 06:48:47;;;;;;;0.50;0.50;;;;;;;;;;4964109;28;20419;-54
2021/05/25 06:51:12;;;;;;;1.10;0.50;;;;;;;;;;4971235;28;20188;-53
2021/05/25 06:53:38;;;;;;;2.20;0.63;;;;;;;;;;4970312;28;20323;-52
2021/05/25 06:56:05;;;;;;;0.70;0.67;;;;;;;;;;4971150;28;20204;-52
2021/05/25 06:58:32;;;;;;;0.53;0.50;;;;;;;;;;4966031;28;20607;-52
2021/05/25 07:00:57;;;;;;;1.87;0.70;;;;;;;;;;4970908;28;20958;-52
2021/05/25 07:03:23;;;;;;;1.60;0.57;;;;;;;;;;4965904;28;20261;-51
2021/05/25 07:05:48;;;;;;;0.73;0.50;;;;;;;;;;4962770;28;20354;-54
2021/05/25 07:08:13;;;;;;;2.47;0.70;;;;;;;;;;4966151;28;20185;-52
2021/05/25 07:10:38;;;;;;;1.60;0.60;;;;;;;;;;4959851;28;20192;-53
2021/05/25 07:13:04;;;;;;;2.00;0.70;;;;;;;;;;4968801;28;20715;-52
2021/05/25 07:15:29;;;;;;;0.43;0.43;;;;;;;;;;4968799;28;20204;-53
2021/05/25 07:17:58;;;;;;;0.87;0.70;;;;;;;;;;4966253;28;20217;-53
2021/05/25 07:20:27;;;;;;;1.67;0.70;;;;;;;;;;4970848;28;20668;-53
2021/05/25 07:22:54;;;;;;;2.03;0.80;;;;;;;;;;4969220;28;20269;-51
2021/05/25 07:25:23;;;;;;;1.13;0.67;;;;;;;;;;4964364;28;20274;-51
2021/05/25 07:27:49;;;;;;;1.23;0.83;;;;;;;;;;4960337;28;20612;-51
2021/05/25 07:30:15;;;;;;;2.13;0.80;;;;;;;;;;4957849;28;20182;-54
2021/05/25 07:32:41;;;;;;;0.80;0.70;;;;;;;;;;4959284;28;20252;-52
2021/05/25 07:35:07;;;;;;;0.90;0.70;;;;;;;;;;4958131;28;20296;-54
2021/05/25 07:37:33;;;;;;;1.83;0.80;;;;;;;;;;4957220;28;20330;-54
2021/05/25 07:39:59;;;;;;;1.00;0.37;;;;;;;;;;4961615;28;20600;-54
2021/05/25 07:42:29;;;;;;;1.23;0.70;;;;;;;;;;4960669;28;20194;-50
2021/05/25 07:44:57;;;;;;;1.33;0.60;;;;;;;;;;4959296;28;20272;-51
2021/05/25 07:47:23;;;;;;;0.63;0.63;;;;;;;;;;4963360;28;20247;-52
2021/05/25 07:49:48;;;;;;;1.03;0.50;;;;;;;;;;4964945;28;20213;-53
2021/05/25 07:52:14;;;;;;;4.73;0.60;;;;;;;;;;4959670;28;20663;-52
2021/05/25 07:54:41;;;;;;;3.23;0.67;;;;;;;;;;4959419;28;20300;-54
2021/05/25 07:57:06;;;;;;;0.97;0.57;;;;;;;;;;4959578;28;20208;-51
2021/05/25 07:59:34;;;;;;;0.53;0.50;;;;;;;;;;4974130;28;20189;-51
2021/05/25 08:01:59;;;;;;;2.77;0.60;;;;;;;;;;4961048;28;20681;-54
2021/05/25 08:04:25;;;;;;;0.40;0.40;;;;;;;;;;4966911;28;20181;-54
2021/05/25 08:06:50;;;;;;;1.77;0.60;;;;;;;;;;4970157;28;20215;-51
2021/05/25 08:09:18;;;;;;;0.50;0.50;;;;;;;;;;4969188;28;20243;-51
2021/05/25 08:11:43;;;;;;;0.47;0.47;;;;;;;;;;4968993;28;20195;-54
2021/05/25 08:14:10;;;;;;;1.00;0.50;;;;;;;;;;4962792;28;20713;-51
2021/05/25 08:16:40;;;;;;;0.40;0.40;;;;;;;;;;4966631;28;20311;-52
2021/05/25 08:19:27;;;;;;;0.57;0.50;;;;;;;;;;4971900;28;20283;-53
2021/05/25 08:21:52;;;;;;;0.50;0.50;;;;;;;;;;4974517;28;20188;-50
2021/05/25 08:24:18;;;;;;;0.50;0.50;;;;;;;;;;4972264;28;20219;-52
2021/05/25 08:26:43;;;;;;;0.93;0.67;;;;;;;;;;4976747;28;20638;-53
2021/05/25 08:29:08;;;;;;;1.40;0.70;;;;;;;;;;4973168;28;20201;-53
2021/05/25 08:31:33;;;;;;;1.43;0.60;;;;;;;;;;4970649;28;20188;-51
2021/05/25 08:34:01;;;;;;;0.97;0.60;;;;;;;;;;4969671;28;20208;-50
2021/05/25 08:36:26;;;;;;;3.27;0.70;;;;;;;;;;4968125;28;20216;-51
2021/05/25 08:38:52;;;;;;;0.40;0.40;;;;;;;;;;4969125;28;20192;-53
2021/05/25 08:41:17;;;;;;;0.60;0.47;;;;;;;;;;4972317;28;20196;-54
2021/05/25 08:43:43;;;;;;;2.20;0.50;;;;;;;;;;4970438;28;20243;-52
2021/05/25 08:46:08;;;;;;;0.70;0.50;;;;;;;;;;4964680;28;20208;-52
2021/05/25 08:48:40;;;;;;;1.00;0.57;;;;;;;;;;4958140;28;20195;-51
2021/05/25 08:51:06;;;;;;;0.70;0.60;;;;;;;;;;4964012;28;20169;-52
2021/05/25 08:53:32;;;;;;;1.83;0.50;;;;;;;;;;4976526;28;20294;-52
2021/05/25 08:56:00;;;;;;;5.37;0.90;;;;;;;;;;4968683;28;20739;-51
2021/05/25 08:58:26;;;;;;;0.47;0.47;;;;;;;;;;4966569;28;20189;-53
2021/05/25 09:00:54;;;;;;;3.73;0.70;;;;;;;;;;4949852;28;20190;-52
2021/05/25 09:03:20;;;;;;;0.90;0.60;;;;;;;;;;4962706;28;20299;-54
2021/05/25 09:05:53;;;;;;;0.93;0.70;;;;;;;;;;4967145;28;20734;-53
2021/05/25 09:08:20;;;;;;;0.50;0.50;;;;;;;;;;4973201;28;20192;-55
2021/05/25 09:10:47;;;;;;;1.60;0.70;;;;;;;;;;4967373;28;20188;-53
2021/05/25 09:13:25;;;;;;;0.83;0.60;;;;;;;;;;4967626;28;20218;-52
2021/05/25 09:15:51;;;;;;;1.17;0.70;;;;;;;;;;4966104;28;20208;-52
2021/05/25 09:18:28;;;;;;;2.20;0.50;;;;;;;;;;4964168;28;20650;-52
2021/05/25 09:20:56;;;;;;;3.80;0.70;;;;;;;;;;4971360;28;20224;-52
2021/05/25 09:23:24;;;;;;;0.40;0.40;;;;;;;;;;4969717;28;20269;-56
2021/05/25 09:25:59;;;;;;;0.40;0.40;;;;;;;;;;4973391;28;20212;-52
2021/05/25 09:28:24;;;;;;;1.00;0.50;;;;;;;;;;4963407;28;24208;-54
2021/05/25 09:30:50;;;;;;;0.93;0.60;;;;;;;;;;4963042;28;20661;-53
2021/05/25 09:33:20;;;;;;;0.40;0.40;;;;;;;;;;4963627;28;20212;-51
2021/05/25 09:35:49;;;;;;;1.27;0.60;;;;;;;;;;4965417;28;20302;-52
2021/05/25 09:38:40;;;;;;;0.80;0.57;;;;;;;;;;4972515;28;20224;-51
2021/05/25 09:41:06;;;;;;;0.40;0.40;;;;;;;;;;4965342;28;20204;-52
2021/05/25 09:43:33;;;;;;;0.40;0.40;;;;;;;;;;4962341;28;20227;-53
2021/05/25 09:46:02;;;;;;;0.40;0.40;;;;;;;;;;4959014;28;20216;-52
2021/05/25 09:48:30;;;;;;;0.40;0.40;;;;;;;;;;4965319;28;20178;-54
2021/05/25 09:50:56;;;;;;;0.87;0.50;;;;;;;;;;4965937;28;20200;-53
2021/05/25 09:53:23;;;;;;;1.37;0.60;;;;;;;;;;4964813;28;20226;-51
2021/05/25 09:56:01;;;;;;;0.40;0.40;;;;;;;;;;4979286;28;20298;-52
2021/05/25 09:58:35;;;;;;;0.87;0.50;;;;;;;;;;4958609;28;20193;-53
2021/05/25 10:01:01;;;;;;;0.50;0.50;;;;;;;;;;4963071;28;20196;-51
2021/05/25 10:03:27;;;;;;;1.00;0.53;;;;;;;;;;4961416;28;20251;-52
2021/05/25 10:05:59;;;;;;;0.87;0.60;;;;;;;;;;4961079;28;20299;-55
2021/05/25 10:08:25;;;;;;;0.43;0.43;;;;;;;;;;4967766;28;20203;-51
2021/05/25 10:10:54;;;;;;;0.40;0.40;;;;;;;;;;4963035;28;20588;-52
2021/05/25 10:13:21;;;;;;;0.97;0.50;;;;;;;;;;4963504;28;20212;-52
2021/05/25 10:15:48;;;;;;;0.40;0.40;;;;;;;;;;4964901;28;20205;-51
2021/05/25 10:20:58;;;;;;;1.57;0.70;;;;;;;;;;4961830;28;20300;-51
2021/05/25 10:23:26;;;;;;;0.40;0.40;;;;;;;;;;4964404;28;20184;-52
2021/05/25 10:25:53;;;;;;;0.60;0.50;;;;;;;;;;4961674;28;20224;-51
2021/05/25 10:28:19;;;;;;;1.58;0.50;;;;;;;;;;4970775;28;20193;-53
2021/05/25 10:30:50;;;;;;;1.63;0.50;;;;;;;;;;4966290;28;20177;-52
2021/05/25 10:33:20;;;;;;;0.40;0.40;;;;;;;;;;4980753;28;20220;-53
2021/05/25 10:35:57;;;;;;;0.87;0.50;;;;;;;;;;4967022;28;20216;-52
2021/05/25 10:38:53;;;;;;;0.40;0.40;;;;;;;;;;4966337;28;20283;-52
2021/05/25 10:41:27;;;;;;;0.50;0.50;;;;;;;;;;4963964;28;20209;-54
2021/05/25 10:43:55;;;;;;;0.50;0.50;;;;;;;;;;4962556;28;20195;-53
2021/05/25 10:46:22;;;;;;;0.40;0.40;;;;;;;;;;4964315;28;20220;-52
2021/05/25 10:49:17;;;;;;;0.40;0.40;;;;;;;;;;4962449;28;20635;-50
2021/05/25 10:52:02;;;;;;;0.40;0.40;;;;;;;;;;4969300;28;20212;-52
2021/05/25 10:54:35;;;;;;;1.27;0.57;;;;;;;;;;4961604;28;20242;-53
2021/05/25 10:57:34;;;;;;;0.97;0.40;;;;;;;;;;4966955;28;20260;-53
2021/05/25 11:00:35;;;;;;;0.50;0.50;;;;;;;;;;4968871;28;20220;-52
2021/05/25 11:03:17;;;;;;;0.40;0.40;;;;;;;;;;4964395;28;20189;-51
2021/05/25 11:05:44;;;;;;;2.30;0.50;;;;;;;;;;4970725;28;20589;-50
2021/05/25 11:08:12;;;;;;;0.50;0.50;;;;;;;;;;4971353;28;20865;-53
2021/05/25 11:10:38;;;;;;;0.77;0.43;;;;;;;;;;4965827;28;20702;-52
2021/05/25 11:13:16;;;;;;;0.40;0.40;;;;;;;;;;4961471;28;20216;-52
2021/05/25 11:16:03;;;;;;;1.03;0.53;;;;;;;;;;4971343;28;20300;-52
2021/05/25 11:18:39;;;;;;;0.60;0.50;;;;;;;;;;4969306;28;20185;-54
2021/05/25 11:23:53;;;;;;;1.43;0.50;;;;;;;;;;4965462;28;20200;-53
2021/05/25 11:26:54;;;;;;;0.60;0.40;;;;;;;;;;4966051;28;20244;-52
2021/05/25 11:29:22;;;;;;;0.63;0.40;;;;;;;;;;4968517;28;20725;-50
2021/05/25 11:31:48;;;;;;;0.40;0.40;;;;;;;;;;4980696;28;20193;-51
2021/05/25 11:34:15;;;;;;;0.30;0.30;;;;;;;;;;4982421;28;20236;-51
2021/05/25 11:36:43;;;;;;;1.60;0.57;;;;;;;;;;4968124;28;20220;-50
2021/05/25 11:39:10;;;;;;;1.80;0.50;;;;;;;;;;4968913;28;20188;-50
2021/05/25 11:41:36;;;;;;;0.40;0.40;;;;;;;;;;4970903;28;20196;-50
2021/05/25 11:44:06;;;;;;;0.87;0.37;;;;;;;;;;4971416;28;20184;-50
2021/05/25 11:46:45;;;;;;;0.50;0.50;;;;;;;;;;4968734;28;20224;-52
2021/05/25 11:49:12;;;;;;;0.67;0.30;;;;;;;;;;4959508;28;20184;-52
2021/05/25 11:51:38;;;;;;;0.63;0.63;;;;;;;;;;4963603;28;20190;-50
2021/05/25 11:54:16;;;;;;;0.33;0.30;;;;;;;;;;4969433;28;20303;-49
2021/05/25 11:56:47;;;;;;;0.40;0.40;;;;;;;;;;4968314;28;20219;-52
2021/05/25 11:59:14;;;;;;;0.40;0.40;;;;;;;;;;4968171;28;21048;-52
2021/05/25 12:01:50;;;;;;;0.50;0.50;;;;;;;;;;4963133;28;20608;-51
2021/05/25 12:04:18;;;;;;;1.00;0.60;;;;;;;;;;4968539;28;20184;-52
2021/05/25 12:06:51;;;;;;;0.50;0.50;;;;;;;;;;4965192;28;20628;-52
2021/05/25 12:09:17;;;;;;;2.63;0.37;;;;;;;;;;4966440;28;20211;-51
2021/05/25 12:11:44;;;;;;;0.70;0.50;;;;;;;;;;4966596;28;20259;-51
2021/05/25 12:14:11;;;;;;;0.50;0.50;;;;;;;;;;4971014;28;20205;-53
2021/05/25 12:16:39;;;;;;;0.70;0.50;;;;;;;;;;4969549;28;20652;-52
2021/05/25 12:19:07;;;;;;;0.50;0.50;;;;;;;;;;4968450;28;20282;-51
2021/05/25 12:21:35;;;;;;;0.53;0.40;;;;;;;;;;4968704;28;20203;-51
2021/05/25 12:24:01;;;;;;;0.40;0.40;;;;;;;;;;4969390;28;20606;-53
2021/05/25 12:26:27;;;;;;;0.43;0.43;;;;;;;;;;4969737;28;20287;-51
2021/05/25 12:28:54;;;;;;;0.30;0.30;;;;;;;;;;4968328;28;20300;-52
2021/05/25 12:31:21;;;;;;;0.40;0.40;;;;;;;;;;4968453;28;20272;-49
2021/05/25 12:33:48;;;;;;;0.40;0.40;;;;;;;;;;4968969;28;20215;-51
2021/05/25 12:36:24;;;;;;;0.30;0.30;;;;;;;;;;4968428;28;20204;-51
2021/05/25 12:38:57;;;;;;;0.50;0.40;;;;;;;;;;4984189;28;20227;-52
2021/05/25 12:41:23;;;;;;;0.67;0.40;;;;;;;;;;4968684;28;20200;-52
2021/05/25 12:43:48;;;;;;;0.40;0.40;;;;;;;;;;4961852;28;20219;-52
2021/05/25 12:46:14;;;;;;;0.30;0.30;;;;;;;;;;4961087;28;20606;-52
2021/05/25 12:48:42;;;;;;;0.37;0.37;;;;;;;;;;4959870;28;20203;-54
2021/05/25 12:51:09;;;;;;;0.30;0.30;;;;;;;;;;4961693;28;20228;-56
2021/05/25 12:53:48;;;;;;;0.33;0.33;;;;;;;;;;4956101;28;20224;-54
2021/05/25 12:56:18;;;;;;;0.40;0.40;;;;;;;;;;4969454;28;20236;-53
2021/05/25 12:58:46;;;;;;;0.43;0.43;;;;;;;;;;4968855;28;20192;-53
2021/05/25 13:01:45;;;;;;;0.70;0.40;;;;;;;;;;4969254;28;20241;-53
2021/05/25 13:04:16;;;;;;;0.80;0.50;;;;;;;;;;4956079;28;20299;-54
2021/05/25 13:06:58;;;;;;;0.40;0.40;;;;;;;;;;4966191;28;20224;-53
2021/05/25 13:09:35;;;;;;;0.93;0.50;;;;;;;;;;4961903;28;20212;-53
2021/05/25 13:12:15;;;;;;;0.53;0.50;;;;;;;;;;4968684;28;20272;-54
2021/05/25 13:14:41;;;;;;;3.53;0.70;;;;;;;;;;4968175;28;20635;-53
2021/05/25 13:17:13;;;;;;;6.50;0.97;;;;;;;;;;4963138;28;20244;-53
2021/05/25 13:19:46;;;;;;;0.37;0.37;;;;;;;;;;4968853;28;20193;-52
2021/05/25 13:22:31;;;;;;;0.30;0.30;;;;;;;;;;4974997;28;20560;-54
2021/05/25 13:25:01;;;;;;;0.67;0.30;;;;;;;;;;4969097;28;20587;-53
2021/05/25 13:27:28;;;;;;;0.30;0.30;;;;;;;;;;4968304;28;20843;-52
2021/05/25 13:29:55;;;;;;;0.30;0.30;;;;;;;;;;4966022;28;20219;-52
2021/05/25 13:32:23;;;;;;;0.30;0.30;;;;;;;;;;4976480;28;20804;-52
2021/05/25 13:34:48;;;;;;;0.80;0.37;;;;;;;;;;4964477;28;20215;-54
2021/05/25 13:37:16;;;;;;;0.30;0.30;;;;;;;;;;4961593;28;20213;-56
2021/05/25 13:39:45;;;;;;;0.60;0.50;;;;;;;;;;4965028;28;20247;-53
2021/05/25 13:42:13;;;;;;;0.90;0.27;;;;;;;;;;4964777;28;20189;-52
2021/05/25 13:44:39;;;;;;;0.97;0.30;;;;;;;;;;4967670;28;20272;-51
2021/05/25 13:47:05;;;;;;;0.30;0.30;;;;;;;;;;4963504;28;20284;-53
2021/05/25 13:49:30;;;;;;;0.30;0.30;;;;;;;;;;4964447;28;20196;-52
2021/05/25 13:51:55;;;;;;;0.30;0.30;;;;;;;;;;4962789;28;20196;-55
2021/05/25 13:54:20;;;;;;;0.40;0.40;;;;;;;;;;4967738;28;20208;-53
2021/05/25 13:56:49;;;;;;;0.67;0.40;;;;;;;;;;4964592;28;20212;-51
2021/05/25 13:59:17;;;;;;;0.30;0.30;;;;;;;;;;4965388;28;20197;-53
2021/05/25 14:01:43;;;;;;;0.30;0.30;;;;;;;;;;4961841;28;20181;-51
2021/05/25 14:04:16;;;;;;;0.40;0.40;;;;;;;;;;4961608;28;20240;-50
2021/05/25 14:06:42;;;;;;;0.93;0.40;;;;;;;;;;4966436;28;20217;-52
2021/05/25 14:09:11;;;;;;;0.50;0.50;;;;;;;;;;4967204;28;20626;-51
2021/05/25 14:11:39;;;;;;;1.13;0.70;;;;;;;;;;4974900;28;20317;-52
2021/05/25 14:14:05;;;;;;;0.80;0.80;;;;;;;;;;4959709;28;20633;-51
2021/05/25 14:16:31;;;;;;;0.67;0.67;;;;;;;;;;4961551;28;20212;-52
2021/05/25 14:18:58;;;;;;;1.10;0.90;;;;;;;;;;4955505;28;20254;-52
2021/05/25 14:21:25;;;;;;;1.17;1.00;;;;;;;;;;4965298;28;20599;-51
2021/05/25 14:23:52;;;;;;;1.23;1.10;;;;;;;;;;4964435;28;20185;-51
2021/05/25 14:26:19;;;;;;;1.10;1.00;;;;;;;;;;4963947;28;20633;-52
2021/05/25 14:28:44;;;;;;;1.40;1.10;;;;;;;;;;4964643;28;20185;-54
2021/05/25 14:31:09;;;;;;;1.27;1.17;;;;;;;;;;4953143;28;20193;-56
2021/05/25 14:33:35;;;;;;;1.80;1.40;;;;;;;;;;4966892;28;20844;-55
2021/05/25 14:36:00;;;;;;;1.73;0.90;;;;;;;;;;4962397;28;20209;-59
2021/05/25 14:38:26;;;;;;;1.17;1.07;;;;;;;;;;4964261;28;20193;-52
2021/05/25 14:40:53;;;;;;;1.17;1.07;;;;;;;;;;4978940;28;20820;-53
2021/05/25 14:43:19;;;;;;;1.57;1.20;;;;;;;;;;4965681;28;20283;-54
2021/05/25 14:45:46;;;;;;;2.57;1.30;;;;;;;;;;4965395;28;20886;-54
2021/05/25 14:48:11;;;;;;;1.63;1.40;;;;;;;;;;4964993;28;20693;-54
2021/05/25 14:50:37;;;;;;;1.40;1.30;;;;;;;;;;4963649;28;20272;-54
2021/05/25 14:53:08;;;;;;;1.63;1.53;;;;;;;;;;4974010;28;20212;-55
2021/05/25 14:55:34;;;;;;;1.77;1.37;;;;;;;;;;4967917;28;20189;-55
2021/05/25 14:58:01;;;;;;;2.30;1.40;;;;;;;;;;4962811;28;20197;-55